Kellerton, IA (50133)

3:51 PM CDT on September 28, 2016 (GMT -0500)
IEM | | Change Station

Elev 1180 ft 40.63 °N, 93.94 °W | Updated 22 minutes ago

Overcast
Overcast
61 °F
Feels Like 61 °F
N
1
Wind Variable Wind from NNE
Gusts 0.0 mph

Today
High -- | Low -- °F
--% Chance of Precip.
Yesterday
High -- | Low -- °F
Precip. -- in
Pressure 30.15 in
Visibility 10.0 miles
Clouds Overcast 3600 ft
Dew Point 52 °F
Humidity 72%
Rainfall in
Snow Depth Not available.
7:10 AM 7:02 PM
Waning Crescent, 4% visible
METAR KLWD 281953Z AUTO 36011KT 10SM OVC036 16/09 A3015 RMK AO2 SLP210 T01610089 TSNO
Pressure 30.15 in
Visibility 10.0 miles
Clouds Overcast 3600 ft
Dew Point 52 °F
Humidity 72%
Rainfall in
Snow Depth Not available.
7:10 AM 7:02 PM
Waning Crescent, 4% visible
METAR KLWD 281953Z AUTO 36011KT 10SM OVC036 16/09 A3015 RMK AO2 SLP210 T01610089 TSNO

10-Day Weather Forecast

Almanac

Astronomy

Sep. 28, 2016 Rise Set
Actual Time
Civil Twilight
Nautical Twilight
Astronomical Twilight
Moon
Length of Visible Light
Length of Day
Tomorrow will be .
, % of the Moon is Illuminated

Today's Extremes

State Highs State Lows

Community

WunderPhotos

Upload Photos

1,942,325 photos uploaded!

WunderBlog® & News

Nearby

Air Quality

  Air Quality AQ Index Pollutant
Not available.

Snow Depth

Station Depth Elevation

Earthquake Activity

City Distance Mag. Time & Date
Minimum magnitude displayed is 2.5.

Coastal Water Temperatures

Place Temperature

Stations

Nearby Weather Stations

Station Location Temp. Windchill Dew Point Humidity Wind Precip. Elev Updated Type
                   

Watches & Warnings

There are currently no watches in effect.